Crown Of Scandinavia — OXRA6 — position and weather

sailwx.info

Track history (hours):
 
Tides and Currents Weather Stations Pressure Air Temp Water Temp Dewpoint Dewpoint Depression Visibility Wind Speed Wind Dir Waves Ship Positions

Crown Of Scandinavia

Last reported at 2019-Mar-25 23:31 UTC. Time now 2019-Mar-25 23:55 UTC.
Position N 57°37' E 011°30'.

Length 171 m; draft 6.3 m.

Type: Ship. MMSI: 219592000.

Date/timePositionNaut miles runAvg speedWind from/ knotsBaromVisibWave heightAir tempDewpointWater temp
2019-Mar-25 23:31N 57°37' E 011°30'815.6
2019-Mar-25 23:01N 57°30' E 011°36'815.1
2019-Mar-25 22:30N 57°23' E 011°42'815.9
2019-Mar-25 22:01N 57°16' E 011°49'816.2
2019-Mar-25 21:31N 57°09' E 011°56'816.1
2019-Mar-25 21:01N 57°02' E 012°01'816.5
2019-Mar-25 20:30N 56°54' E 012°07'816.5
2019-Mar-25 20:00N 56°46' E 012°12'816.4
2019-Mar-25 19:31N 56°38' E 012°16'916.2
2019-Mar-25 18:57N 56°30' E 012°20'2015.6
2019-Mar-25 17:42N 56°11' E 012°29'316.0
2019-Mar-25 17:31N 56°08' E 012°31'816.0
2019-Mar-25 17:01N 56°02' E 012°40'815.9
2019-Mar-25 16:30N 55°54' E 012°44'714.6
2019-Mar-25 16:01N 55°47' E 012°42'611.4
2019-Mar-25 15:30N 55°42' E 012°36'0 0.2
2019-Mar-25 15:00N 55°42' E 012°36'0 0.0
2019-Mar-25 14:30N 55°42' E 012°36'0 0.0
2019-Mar-25 14:00N 55°42' E 012°36'0 0.0
2019-Mar-25 13:27N 55°42' E 012°36'0 0.0
2019-Mar-25 13:00N 55°42' E 012°36'0 0.0
2019-Mar-25 12:30N 55°42' E 012°36'0 0.0
2019-Mar-25 12:00N 55°42' E 012°36'0 0.0
2019-Mar-25 11:30N 55°42' E 012°36'0 0.0
2019-Mar-25 11:00N 55°42' E 012°36'0 0.0
2019-Mar-25 10:27N 55°42' E 012°36'0 0.0
2019-Mar-25 09:57N 55°42' E 012°36'0 0.0
2019-Mar-25 09:30N 55°42' E 012°36'0 0.0
2019-Mar-25 09:00N 55°42' E 012°36'1 1.6
2019-Mar-25 08:30N 55°43' E 012°37'714.1
2019-Mar-25 08:01N 55°49' E 012°42'815.8
2019-Mar-25 07:31N 55°57' E 012°39'815.1
2019-Mar-25 07:01N 56°04' E 012°37'815.7
2019-Mar-25 06:31N 56°10' E 012°28'816.5
2019-Mar-25 06:00N 56°18' E 012°23'5717.0
2019-Mar-25 02:39N 57°13' E 011°52'217.2
2019-Mar-25 02:31N 57°15' E 011°50'816.9
2019-Mar-25 02:01N 57°22' E 011°42'917.2
2019-Mar-25 01:31N 57°29' E 011°33'817.0
2019-Mar-25 01:01N 57°36' E 011°24'816.7
2019-Mar-25 00:31N 57°43' E 011°17'917.4
2019-Mar-25 00:01N 57°51' E 011°08'816.8
2019-Mar-24 23:31N 57°58' E 011°01'816.1
2019-Mar-24 23:01N 58°06' E 010°55'815.9
2019-Mar-24 22:31N 58°13' E 010°50'816.0
2019-Mar-24 22:00N 58°21' E 010°44'815.9
2019-Mar-24 21:31N 58°28' E 010°39'815.7
2019-Mar-24 21:00N 58°36' E 010°36'815.8
2019-Mar-24 20:30N 58°44' E 010°35'715.2
2019-Mar-24 20:01N 58°51' E 010°35'815.9
2019-Mar-24 19:31N 58°59' E 010°36'816.1
2019-Mar-24 19:01N 59°07' E 010°38'816.1
2019-Mar-24 18:31N 59°15' E 010°36'816.6
2019-Mar-24 18:01N 59°23' E 010°34'816.2
2019-Mar-24 17:31N 59°31' E 010°35'815.5
2019-Mar-24 17:01N 59°39' E 010°37'713.6
2019-Mar-24 16:31N 59°46' E 010°33'815.4
2019-Mar-24 16:01N 59°53' E 010°39'3 6.3
2019-Mar-24 15:30N 59°54' E 010°45'0 0.0
2019-Mar-24 15:00N 59°54' E 010°45'0 0.0
2019-Mar-24 14:30N 59°54' E 010°45'0 0.0
2019-Mar-24 14:01N 59°54' E 010°45'0 0.0
2019-Mar-24 13:31N 59°54' E 010°45'0 0.0
2019-Mar-24 13:01N 59°54' E 010°45'0 0.0
2019-Mar-24 12:31N 59°54' E 010°45'0 0.0
2019-Mar-24 12:01N 59°54' E 010°45'0 0.0
2019-Mar-24 11:30N 59°54' E 010°45'0 0.0
2019-Mar-24 11:00N 59°54' E 010°45'0 0.0
2019-Mar-24 10:31N 59°54' E 010°45'0 0.0
2019-Mar-24 10:01N 59°54' E 010°45'0 0.0
2019-Mar-24 09:30N 59°54' E 010°45'0 0.0
2019-Mar-24 09:01N 59°54' E 010°45'0 0.2
2019-Mar-24 08:31N 59°54' E 010°45'510.3
2019-Mar-24 08:00N 59°51' E 010°37'714.5
2019-Mar-24 07:31N 59°44' E 010°35'714.7
2019-Mar-24 07:00N 59°36' E 010°38'917.5
2019-Mar-24 06:30N 59°28' E 010°34'917.1
2019-Mar-24 06:00N 59°19' E 010°36'917.2
2019-Mar-24 05:30N 59°11' E 010°40'816.9
2019-Mar-24 05:00N 59°03' E 010°41'816.6
2019-Mar-24 04:30N 58°54' E 010°42'816.8
2019-Mar-24 04:00N 58°46' E 010°45'916.8
2019-Mar-24 03:30N 58°37' E 010°47'917.3
2019-Mar-24 03:00N 58°29' E 010°49'917.4
2019-Mar-24 02:30N 58°20' E 010°51'917.7
2019-Mar-24 02:00N 58°12' E 010°54'917.4
2019-Mar-24 01:30N 58°03' E 010°56'817.0
2019-Mar-24 01:00N 57°55' E 010°58'917.0
2019-Mar-24 00:30N 57°46' E 011°01'816.0
2019-Mar-24 00:00N 57°39' E 011°05'816.2
2019-Mar-23 23:30N 57°33' E 011°16'816.3
2019-Mar-23 23:00N 57°27' E 011°26'816.4
2019-Mar-23 22:30N 57°20' E 011°32'816.3
2019-Mar-23 22:00N 57°12' E 011°36'816.2
2019-Mar-23 21:30N 57°04' E 011°43'5816.1
2019-Mar-23 17:53N 56°12' E 012°28'616.1
2019-Mar-23 17:30N 56°07' E 012°34'714.7
2019-Mar-23 17:00N 56°00' E 012°41'815.4
2019-Mar-23 16:30N 55°53' E 012°44'714.9
2019-Mar-23 16:00N 55°46' E 012°42'5 9.9
2019-Mar-23 15:30N 55°42' E 012°36'0 0.0
2019-Mar-23 15:00N 55°42' E 012°36'0 0.0
2019-Mar-23 14:30N 55°42' E 012°36'0 0.0
2019-Mar-23 14:00N 55°42' E 012°36'0 0.0
2019-Mar-23 13:30N 55°42' E 012°36'0 0.0
2019-Mar-23 12:54N 55°42' E 012°36'0 0.0
2019-Mar-23 12:27N 55°42' E 012°36'0 0.0
2019-Mar-23 12:00N 55°42' E 012°36'0 0.0
2019-Mar-23 11:27N 55°42' E 012°36'0 0.0
2019-Mar-23 11:00N 55°42' E 012°36'0 0.0
2019-Mar-23 10:27N 55°42' E 012°36'0 0.0
2019-Mar-23 10:00N 55°42' E 012°36'0 0.0
2019-Mar-23 09:27N 55°42' E 012°36'0 0.0
2019-Mar-23 09:00N 55°42' E 012°36'0 0.5
2019-Mar-23 08:30N 55°42' E 012°36'713.1
2019-Mar-23 08:01N 55°48' E 012°42'714.4
2019-Mar-23 07:30N 55°55' E 012°39'714.1
2019-Mar-23 07:01N 56°02' E 012°40'714.8
2019-Mar-23 06:31N 56°07' E 012°30'1016.7
2019-Mar-23 05:55N 56°15' E 012°18'5017.5
2019-Mar-23 03:03N 57°01' E 011°43'117.1
2019-Mar-23 03:01N 57°02' E 011°42'917.0
2019-Mar-23 02:30N 57°10' E 011°37'917.1
2019-Mar-23 02:01N 57°18' E 011°32'917.3
2019-Mar-23 01:30N 57°26' E 011°26'816.7
2019-Mar-23 01:01N 57°33' E 011°18'816.9
2019-Mar-23 00:31N 57°41' E 011°12'917.0
2019-Mar-23 00:00N 57°49' E 011°06'816.8
2019-Mar-22 23:31N 57°56' E 011°01'816.9
2019-Mar-22 23:01N 58°04' E 010°55'816.9
2019-Mar-22 22:31N 58°12' E 010°49'916.9
2019-Mar-22 22:00N 58°20' E 010°44'816.6
2019-Mar-22 21:30N 58°28' E 010°38'816.1
2019-Mar-22 21:00N 58°36' E 010°36'714.8
2019-Mar-22 20:29N 58°44' E 010°35'815.7
2019-Mar-22 20:00N 58°51' E 010°34'816.3
2019-Mar-22 19:30N 58°59' E 010°36'816.3
2019-Mar-22 19:00N 59°07' E 010°38'815.8
2019-Mar-22 18:30N 59°15' E 010°37'815.5
2019-Mar-22 18:01N 59°23' E 010°34'815.4
2019-Mar-22 17:30N 59°30' E 010°35'714.9
2019-Mar-22 17:00N 59°38' E 010°37'713.0
2019-Mar-22 16:30N 59°44' E 010°33'715.1
2019-Mar-22 16:01N 59°51' E 010°36'510.1
2019-Mar-22 15:30N 59°54' E 010°45'0 0.1
2019-Mar-22 14:58N 59°54' E 010°45'0 0.0
2019-Mar-22 14:28N 59°54' E 010°45'0 0.0
2019-Mar-22 13:58N 59°54' E 010°45'0 0.0
2019-Mar-22 13:28N 59°54' E 010°45'0 0.0
2019-Mar-22 12:58N 59°54' E 010°45'0 0.0
2019-Mar-22 12:28N 59°54' E 010°45'0 0.0
2019-Mar-22 11:58N 59°54' E 010°45'0 0.0
2019-Mar-22 11:28N 59°54' E 010°45'0 0.0
2019-Mar-22 10:58N 59°54' E 010°45'0 0.0
2019-Mar-22 10:28N 59°54' E 010°45'0 0.0
2019-Mar-22 09:58N 59°54' E 010°45'0 0.0
2019-Mar-22 09:28N 59°54' E 010°45'0 0.0
2019-Mar-22 08:58N 59°54' E 010°45'0 0.5
2019-Mar-22 08:30N 59°54' E 010°45'713.1
2019-Mar-22 08:01N 59°49' E 010°35'714.8
2019-Mar-22 07:30N 59°42' E 010°36'714.3
2019-Mar-22 07:00N 59°35' E 010°38'816.0
2019-Mar-22 06:30N 59°27' E 010°34'815.7
2019-Mar-22 06:00N 59°19' E 010°36'815.9
2019-Mar-22 05:30N 59°12' E 010°39'815.7
2019-Mar-22 05:00N 59°04' E 010°40'815.8
2019-Mar-22 04:30N 58°56' E 010°42'816.2
2019-Mar-22 04:00N 58°48' E 010°44'816.4
2019-Mar-22 03:30N 58°40' E 010°47'816.7
2019-Mar-22 03:00N 58°32' E 010°52'917.2
2019-Mar-22 02:30N 58°24' E 010°58'917.0
2019-Mar-22 02:00N 58°16' E 011°03'917.5
2019-Mar-22 01:30N 58°08' E 011°09'917.3
2019-Mar-22 01:00N 57°60' E 011°14'917.0
2019-Mar-22 00:30N 57°52' E 011°20'816.5
2019-Mar-22 00:00N 57°44' E 011°25'816.6
2019-Mar-21 23:30N 57°36' E 011°31'815.7
2019-Mar-21 23:00N 57°29' E 011°37'815.6
2019-Mar-21 22:30N 57°22' E 011°43'815.8
2019-Mar-21 22:00N 57°15' E 011°51'815.4
2019-Mar-21 21:30N 57°08' E 011°57'815.2
2019-Mar-21 21:00N 57°01' E 012°02'714.8
2019-Mar-21 20:30N 56°54' E 012°07'1015.1
2019-Mar-21 19:52N 56°45' E 012°13'815.4
2019-Mar-21 19:21N 56°37' E 012°16'2816.0
2019-Mar-21 17:37N 56°10' E 012°28'316.9
2019-Mar-21 17:26N 56°08' E 012°32'716.7
2019-Mar-21 17:01N 56°03' E 012°40'816.4
2019-Mar-21 16:30N 55°55' E 012°45'816.2
2019-Mar-21 16:00N 55°47' E 012°42'611.8
2019-Mar-21 15:30N 55°42' E 012°36'0 0.0
2019-Mar-21 14:57N 55°42' E 012°36'0 0.0
2019-Mar-21 14:30N 55°42' E 012°36'0 0.0
2019-Mar-21 13:57N 55°42' E 012°36'0 0.0
2019-Mar-21 13:24N 55°42' E 012°36'0 0.0
2019-Mar-21 12:57N 55°42' E 012°36'0 0.0
2019-Mar-21 12:27N 55°42' E 012°36'0 0.0
2019-Mar-21 12:00N 55°42' E 012°36'0 0.0
2019-Mar-21 11:27N 55°42' E 012°36'0 0.0
2019-Mar-21 10:54N 55°42' E 012°36'0 0.0
2019-Mar-21 10:30N 55°42' E 012°36'0 0.0
2019-Mar-21 10:00N 55°42' E 012°36'0 0.0
2019-Mar-21 09:27N 55°42' E 012°36'0 0.0
2019-Mar-21 08:51N 55°42' E 012°36'0 0.0
2019-Mar-21 08:30N 55°42' E 012°36'2 3.6
2019-Mar-21 08:01N 55°43' E 012°38'612.0
2019-Mar-21 07:31N 55°49' E 012°42'714.6
2019-Mar-21 07:01N 55°56' E 012°39'815.0
2019-Mar-21 06:31N 56°03' E 012°38'815.5
2019-Mar-21 06:00N 56°09' E 012°28'6317.2
2019-Mar-21 02:21N 57°09' E 011°55'617.5
2019-Mar-21 02:00N 57°15' E 011°50'917.8
2019-Mar-21 01:31N 57°22' E 011°43'917.1
2019-Mar-21 01:01N 57°30' E 011°36'816.4
2019-Mar-21 00:31N 57°38' E 011°30'816.3
2019-Mar-21 00:01N 57°45' E 011°25'816.3
2019-Mar-20 23:31N 57°53' E 011°19'816.6
2019-Mar-20 23:00N 58°01' E 011°13'816.6
2019-Mar-20 22:30N 58°08' E 011°08'816.1
2019-Mar-20 22:01N 58°16' E 011°03'816.5
2019-Mar-20 21:30N 58°24' E 010°57'816.6
2019-Mar-20 21:00N 58°31' E 010°51'816.5
2019-Mar-20 20:30N 58°39' E 010°47'816.8
2019-Mar-20 20:00N 58°48' E 010°44'917.2
2019-Mar-20 19:31N 58°56' E 010°41'917.2
2019-Mar-20 19:01N 59°05' E 010°40'816.9
2019-Mar-20 18:31N 59°13' E 010°38'816.9
2019-Mar-20 18:01N 59°21' E 010°34'816.6
2019-Mar-20 17:31N 59°30' E 010°34'816.2
2019-Mar-20 17:01N 59°38' E 010°37'713.2
2019-Mar-20 16:30N 59°44' E 010°33'815.8
2019-Mar-20 16:01N 59°52' E 010°37'5 9.1
2019-Mar-20 15:30N 59°54' E 010°45'0 0.1
2019-Mar-20 15:00N 59°54' E 010°45'0 0.0
2019-Mar-20 14:30N 59°54' E 010°45'0 0.0
2019-Mar-20 14:00N 59°54' E 010°45'0 0.0
2019-Mar-20 13:30N 59°54' E 010°45'0 0.0
2019-Mar-20 13:00N 59°54' E 010°45'0 0.0
2019-Mar-20 12:30N 59°54' E 010°45'0 0.0
2019-Mar-20 12:00N 59°54' E 010°45'0 0.0
2019-Mar-20 11:30N 59°54' E 010°45'0 0.0
2019-Mar-20 11:00N 59°54' E 010°45'0 0.0
2019-Mar-20 10:30N 59°54' E 010°45'0 0.0
2019-Mar-20 10:00N 59°54' E 010°45'0 0.0
2019-Mar-20 09:30N 59°54' E 010°45'0 0.0
2019-Mar-20 09:00N 59°54' E 010°45'0 0.4
2019-Mar-20 08:30N 59°54' E 010°45'613.2
2019-Mar-20 08:00N 59°50' E 010°35'714.4
2019-Mar-20 07:30N 59°42' E 010°36'612.5
2019-Mar-20 07:00N 59°36' E 010°38'816.1
2019-Mar-20 06:30N 59°28' E 010°34'815.8
2019-Mar-20 06:00N 59°21' E 010°36'816.0
2019-Mar-20 05:30N 59°13' E 010°38'815.8
2019-Mar-20 05:00N 59°05' E 010°40'815.5
2019-Mar-20 04:30N 58°57' E 010°42'815.9
2019-Mar-20 04:00N 58°49' E 010°43'816.1
2019-Mar-20 03:30N 58°41' E 010°46'816.0
2019-Mar-20 03:00N 58°34' E 010°51'816.4
2019-Mar-20 02:30N 58°26' E 010°57'816.6
2019-Mar-20 02:00N 58°18' E 011°02'816.5
2019-Mar-20 01:30N 58°11' E 011°07'816.4
2019-Mar-20 01:00N 58°03' E 011°13'815.9
2019-Mar-20 00:30N 57°55' E 011°18'816.1
2019-Mar-20 00:00N 57°48' E 011°23'816.5
2019-Mar-19 23:30N 57°40' E 011°28'816.6
2019-Mar-19 23:00N 57°32' E 011°34'816.2
2019-Mar-19 22:30N 57°25' E 011°40'816.0
2019-Mar-19 22:00N 57°18' E 011°47'815.8
2019-Mar-19 21:30N 57°11' E 011°54'816.1
2019-Mar-19 21:00N 57°04' E 011°60'916.4
2019-Mar-19 20:27N 56°55' E 012°06'1216.2
2019-Mar-19 19:43N 56°44' E 012°13'316.4
2019-Mar-19 19:30N 56°41' E 012°15'3316.1
2019-Mar-19 17:28N 56°09' E 012°30'817.4
2019-Mar-19 17:00N 56°03' E 012°40'816.4
2019-Mar-19 16:30N 55°55' E 012°44'815.6
2019-Mar-19 16:00N 55°47' E 012°43'612.6
2019-Mar-19 15:30N 55°42' E 012°36'0 0.2
2019-Mar-19 14:56N 55°42' E 012°36'0 0.0
2019-Mar-19 14:29N 55°42' E 012°36'0 0.0
2019-Mar-19 13:56N 55°42' E 012°36'0 0.0
2019-Mar-19 13:29N 55°42' E 012°36'0 0.0
2019-Mar-19 12:56N 55°42' E 012°36'0 0.0
2019-Mar-19 12:26N 55°42' E 012°36'0 0.0
2019-Mar-19 11:59N 55°42' E 012°36'0 0.0
2019-Mar-19 11:29N 55°42' E 012°36'0 0.0
2019-Mar-19 10:59N 55°42' E 012°36'0 0.0
2019-Mar-19 10:29N 55°42' E 012°36'0 0.0
2019-Mar-19 09:59N 55°42' E 012°36'0 0.0
2019-Mar-19 09:29N 55°42' E 012°36'0 0.0
2019-Mar-19 08:59N 55°42' E 012°36'0 0.8
2019-Mar-19 08:30N 55°42' E 012°36'613.1
2019-Mar-19 08:01N 55°48' E 012°42'816.0
2019-Mar-19 07:31N 55°56' E 012°39'815.6
2019-Mar-19 07:01N 56°04' E 012°38'815.7
2019-Mar-19 06:30N 56°10' E 012°29'6716.5
2019-Mar-19 02:27N 57°14' E 011°52'817.2
2019-Mar-19 02:01N 57°20' E 011°45'917.1
2019-Mar-19 01:31N 57°27' E 011°36'816.9
2019-Mar-19 01:00N 57°35' E 011°29'816.9
2019-Mar-19 00:31N 57°42' E 011°22'917.5
2019-Mar-19 00:00N 57°50' E 011°15'816.8
2019-Mar-18 23:31N 57°58' E 011°11'816.2
2019-Mar-18 23:01N 58°06' E 011°07'815.7
2019-Mar-18 22:31N 58°13' E 011°01'815.4
2019-Mar-18 22:00N 58°20' E 010°55'815.3
2019-Mar-18 21:30N 58°27' E 010°48'815.5
2019-Mar-18 21:00N 58°34' E 010°42'815.8
2019-Mar-18 20:30N 58°41' E 010°35'816.0
2019-Mar-18 20:00N 58°49' E 010°35'816.2
2019-Mar-18 19:31N 58°57' E 010°36'816.2
2019-Mar-18 19:01N 59°06' E 010°38'917.1
2019-Mar-18 18:31N 59°14' E 010°37'714.1
2019-Mar-18 18:00N 59°21' E 010°35'714.6
2019-Mar-18 17:30N 59°28' E 010°34'816.2
2019-Mar-18 17:00N 59°36' E 010°38'714.3
2019-Mar-18 16:30N 59°43' E 010°34'815.5
2019-Mar-18 16:00N 59°51' E 010°35'611.1
2019-Mar-18 15:30N 59°54' E 010°45'0 0.0
2019-Mar-18 14:58N 59°54' E 010°45'0 0.0
2019-Mar-18 14:28N 59°54' E 010°45'0 0.0
2019-Mar-18 13:58N 59°54' E 010°45'0 0.0
2019-Mar-18 13:28N 59°54' E 010°45'0 0.0
2019-Mar-18 12:58N 59°54' E 010°45'0 0.0
2019-Mar-18 12:28N 59°54' E 010°45'0 0.0
2019-Mar-18 11:58N 59°54' E 010°45'0 0.0
2019-Mar-18 11:28N 59°54' E 010°45'0 0.0
2019-Mar-18 10:58N 59°54' E 010°45'0 0.0
2019-Mar-18 10:28N 59°54' E 010°45'0 0.0
2019-Mar-18 09:58N 59°54' E 010°45'0 0.0
2019-Mar-18 09:28N 59°54' E 010°45'0 0.0
2019-Mar-18 08:58N 59°54' E 010°45'0 0.5
2019-Mar-18 08:30N 59°54' E 010°44'714.4
2019-Mar-18 08:00N 59°49' E 010°35'815.3
2019-Mar-18 07:31N 59°41' E 010°36'714.9
2019-Mar-18 07:01N 59°34' E 010°38'816.1
2019-Mar-18 06:31N 59°26' E 010°34'816.5
2019-Mar-18 06:01N 59°18' E 010°37'816.3
2019-Mar-18 05:31N 59°10' E 010°40'816.4
2019-Mar-18 05:01N 59°02' E 010°42'816.2
2019-Mar-18 04:31N 58°54' E 010°43'816.6
2019-Mar-18 04:01N 58°45' E 010°44'816.3
2019-Mar-18 03:30N 58°37' E 010°48'816.8
2019-Mar-18 03:00N 58°29' E 010°51'917.1
2019-Mar-18 02:30N 58°21' E 010°54'917.3
2019-Mar-18 02:01N 58°12' E 010°57'917.4
2019-Mar-18 01:31N 58°03' E 010°58'917.8
2019-Mar-18 01:01N 57°55' E 010°58'815.7
2019-Mar-18 00:31N 57°47' E 010°59'815.6
2019-Mar-18 00:01N 57°39' E 011°04'815.7
2019-Mar-17 23:31N 57°34' E 011°15'815.9
2019-Mar-17 23:01N 57°28' E 011°25'816.2
2019-Mar-17 22:30N 57°21' E 011°31'816.4
2019-Mar-17 22:01N 57°13' E 011°36'815.9
2019-Mar-17 21:30N 57°06' E 011°41'5815.8
2019-Mar-17 17:49N 56°12' E 012°23'516.7
2019-Mar-17 17:31N 56°09' E 012°30'816.8
2019-Mar-17 17:01N 56°02' E 012°40'816.5
2019-Mar-17 16:31N 55°54' E 012°44'816.0
2019-Mar-17 16:01N 55°47' E 012°42'611.4
2019-Mar-17 15:30N 55°42' E 012°36'0 0.0
2019-Mar-17 14:56N 55°42' E 012°36'0 0.0
2019-Mar-17 14:23N 55°42' E 012°36'0 0.0
2019-Mar-17 13:53N 55°42' E 012°36'0 0.0
2019-Mar-17 13:26N 55°42' E 012°36'0 0.0
2019-Mar-17 12:56N 55°42' E 012°36'0 0.0
2019-Mar-17 12:17N 55°42' E 012°36'0 0.0
2019-Mar-17 11:56N 55°42' E 012°36'0 0.0
2019-Mar-17 11:29N 55°42' E 012°36'0 0.0
2019-Mar-17 10:56N 55°42' E 012°36'0 0.0
2019-Mar-17 10:29N 55°42' E 012°36'0 0.0
2019-Mar-17 09:59N 55°42' E 012°36'0 0.0
2019-Mar-17 09:29N 55°42' E 012°36'0 0.5
2019-Mar-17 09:00N 55°42' E 012°36'612.8
2019-Mar-17 08:30N 55°48' E 012°42'816.2
2019-Mar-17 08:00N 55°56' E 012°39'816.1
2019-Mar-17 07:30N 56°04' E 012°38'815.9
2019-Mar-17 07:00N 56°09' E 012°27'917.7
2019-Mar-17 06:30N 56°16' E 012°17'5116.7
2019-Mar-17 03:28N 57°02' E 011°40'817.2
2019-Mar-17 03:00N 57°10' E 011°34'816.7
2019-Mar-17 02:30N 57°18' E 011°32'816.4
2019-Mar-17 02:00N 57°26' E 011°31'816.5
2019-Mar-17 01:30N 57°34' E 011°29'816.8
2019-Mar-17 01:00N 57°42' E 011°26'816.1
2019-Mar-17 00:30N 57°50' E 011°21'714.4
2019-Mar-17 00:00N 57°57' E 011°17'714.3
2019-Mar-16 23:30N 58°03' E 011°12'714.7
2019-Mar-16 23:00N 58°10' E 011°07'714.8
2019-Mar-16 22:30N 58°17' E 011°02'713.8
2019-Mar-16 22:00N 58°24' E 010°58'714.5
2019-Mar-16 21:30N 58°31' E 010°53'714.8
2019-Mar-16 21:00N 58°38' E 010°48'714.7
2019-Mar-16 20:30N 58°44' E 010°43'714.4
2019-Mar-16 20:00N 58°51' E 010°40'713.6
2019-Mar-16 19:30N 58°58' E 010°36'714.2
2019-Mar-16 19:00N 59°05' E 010°38'815.9
2019-Mar-16 18:30N 59°13' E 010°38'917.4
2019-Mar-16 18:00N 59°22' E 010°35'917.1
2019-Mar-16 17:30N 59°30' E 010°35'816.4
2019-Mar-16 17:00N 59°38' E 010°37'713.1
2019-Mar-16 16:31N 59°44' E 010°33'816.3
2019-Mar-16 16:00N 59°52' E 010°38'4 7.9
2019-Mar-16 15:31N 59°54' E 010°45'0 0.0
2019-Mar-16 15:00N 59°54' E 010°45'0 0.0
2019-Mar-16 14:30N 59°54' E 010°45'0 0.0
2019-Mar-16 14:00N 59°54' E 010°45'0 0.0
2019-Mar-16 13:30N 59°54' E 010°45'0 0.0
2019-Mar-16 13:00N 59°54' E 010°45'0 0.0
2019-Mar-16 12:30N 59°54' E 010°45'0 0.0
2019-Mar-16 12:00N 59°54' E 010°45'0 0.0
2019-Mar-16 11:30N 59°54' E 010°45'0 0.0
2019-Mar-16 11:00N 59°54' E 010°45'0 0.0
2019-Mar-16 10:30N 59°54' E 010°45'0 0.0
2019-Mar-16 10:00N 59°54' E 010°45'0 0.0
2019-Mar-16 09:30N 59°54' E 010°45'0 0.0
2019-Mar-16 09:00N 59°54' E 010°45'0 0.2
2019-Mar-16 08:30N 59°54' E 010°45'611.8
2019-Mar-16 08:00N 59°50' E 010°36'815.3
2019-Mar-16 07:31N 59°43' E 010°36'714.4
2019-Mar-16 07:01N 59°35' E 010°38'816.2
2019-Mar-16 06:31N 59°28' E 010°34'815.9
2019-Mar-16 06:01N 59°20' E 010°36'815.6
2019-Mar-16 05:31N 59°12' E 010°39'815.3
2019-Mar-16 05:01N 59°04' E 010°41'815.5
2019-Mar-16 04:30N 58°57' E 010°42'815.6
2019-Mar-16 04:00N 58°49' E 010°44'816.2
2019-Mar-16 03:30N 58°41' E 010°46'816.7
2019-Mar-16 03:01N 58°33' E 010°50'917.4
2019-Mar-16 02:30N 58°25' E 010°55'917.2
2019-Mar-16 02:01N 58°16' E 011°00'816.7
2019-Mar-16 01:31N 58°08' E 011°05'816.9
2019-Mar-16 01:01N 58°00' E 011°10'816.0
2019-Mar-16 00:31N 57°53' E 011°14'815.1
2019-Mar-16 00:01N 57°46' E 011°19'  
Track history (hours):
 
Tides and Currents Weather Stations Pressure Air Temp Water Temp Dewpoint Dewpoint Depression Visibility Wind Speed Wind Dir Waves Ship Positions

Crown Of Scandinavia

Last reported at 2019-Mar-25 23:31 UTC. Time now 2019-Mar-25 23:55 UTC.
Position N 57°37' E 011°30'.

Length 171 m; draft 6.3 m.

Type: Ship. MMSI: 219592000.

Date/timePositionNaut miles runAvg speedWind from/ knotsBaromVisibWave heightAir tempDewpointWater temp
2019-Mar-25 23:31N 57°37' E 011°30'815.6
2019-Mar-25 23:01N 57°30' E 011°36'815.1
2019-Mar-25 22:30N 57°23' E 011°42'815.9
2019-Mar-25 22:01N 57°16' E 011°49'816.2
2019-Mar-25 21:31N 57°09' E 011°56'816.1
2019-Mar-25 21:01N 57°02' E 012°01'816.5
2019-Mar-25 20:30N 56°54' E 012°07'816.5
2019-Mar-25 20:00N 56°46' E 012°12'816.4
2019-Mar-25 19:31N 56°38' E 012°16'916.2
2019-Mar-25 18:57N 56°30' E 012°20'2015.6
2019-Mar-25 17:42N 56°11' E 012°29'316.0
2019-Mar-25 17:31N 56°08' E 012°31'816.0
2019-Mar-25 17:01N 56°02' E 012°40'815.9
2019-Mar-25 16:30N 55°54' E 012°44'714.6
2019-Mar-25 16:01N 55°47' E 012°42'611.4
2019-Mar-25 15:30N 55°42' E 012°36'0 0.2
2019-Mar-25 15:00N 55°42' E 012°36'0 0.0
2019-Mar-25 14:30N 55°42' E 012°36'0 0.0
2019-Mar-25 14:00N 55°42' E 012°36'0 0.0
2019-Mar-25 13:27N 55°42' E 012°36'0 0.0
2019-Mar-25 13:00N 55°42' E 012°36'0 0.0
2019-Mar-25 12:30N 55°42' E 012°36'0 0.0
2019-Mar-25 12:00N 55°42' E 012°36'0 0.0
2019-Mar-25 11:30N 55°42' E 012°36'0 0.0
2019-Mar-25 11:00N 55°42' E 012°36'0 0.0
2019-Mar-25 10:27N 55°42' E 012°36'0 0.0
2019-Mar-25 09:57N 55°42' E 012°36'0 0.0
2019-Mar-25 09:30N 55°42' E 012°36'0 0.0
2019-Mar-25 09:00N 55°42' E 012°36'1 1.6
2019-Mar-25 08:30N 55°43' E 012°37'714.1
2019-Mar-25 08:01N 55°49' E 012°42'815.8
2019-Mar-25 07:31N 55°57' E 012°39'815.1
2019-Mar-25 07:01N 56°04' E 012°37'815.7
2019-Mar-25 06:31N 56°10' E 012°28'816.5
2019-Mar-25 06:00N 56°18' E 012°23'5717.0
2019-Mar-25 02:39N 57°13' E 011°52'217.2
2019-Mar-25 02:31N 57°15' E 011°50'816.9
2019-Mar-25 02:01N 57°22' E 011°42'917.2
2019-Mar-25 01:31N 57°29' E 011°33'817.0
2019-Mar-25 01:01N 57°36' E 011°24'816.7
2019-Mar-25 00:31N 57°43' E 011°17'917.4
2019-Mar-25 00:01N 57°51' E 011°08'816.8
2019-Mar-24 23:31N 57°58' E 011°01'816.1
2019-Mar-24 23:01N 58°06' E 010°55'815.9
2019-Mar-24 22:31N 58°13' E 010°50'816.0
2019-Mar-24 22:00N 58°21' E 010°44'815.9
2019-Mar-24 21:31N 58°28' E 010°39'815.7
2019-Mar-24 21:00N 58°36' E 010°36'815.8
2019-Mar-24 20:30N 58°44' E 010°35'715.2
2019-Mar-24 20:01N 58°51' E 010°35'815.9
2019-Mar-24 19:31N 58°59' E 010°36'816.1
2019-Mar-24 19:01N 59°07' E 010°38'816.1
2019-Mar-24 18:31N 59°15' E 010°36'816.6
2019-Mar-24 18:01N 59°23' E 010°34'816.2
2019-Mar-24 17:31N 59°31' E 010°35'815.5
2019-Mar-24 17:01N 59°39' E 010°37'713.6
2019-Mar-24 16:31N 59°46' E 010°33'815.4
2019-Mar-24 16:01N 59°53' E 010°39'3 6.3
2019-Mar-24 15:30N 59°54' E 010°45'0 0.0
2019-Mar-24 15:00N 59°54' E 010°45'0 0.0
2019-Mar-24 14:30N 59°54' E 010°45'0 0.0
2019-Mar-24 14:01N 59°54' E 010°45'0 0.0
2019-Mar-24 13:31N 59°54' E 010°45'0 0.0
2019-Mar-24 13:01N 59°54' E 010°45'0 0.0
2019-Mar-24 12:31N 59°54' E 010°45'0 0.0
2019-Mar-24 12:01N 59°54' E 010°45'0 0.0
2019-Mar-24 11:30N 59°54' E 010°45'0 0.0
2019-Mar-24 11:00N 59°54' E 010°45'0 0.0
2019-Mar-24 10:31N 59°54' E 010°45'0 0.0
2019-Mar-24 10:01N 59°54' E 010°45'0 0.0
2019-Mar-24 09:30N 59°54' E 010°45'0 0.0
2019-Mar-24 09:01N 59°54' E 010°45'0 0.2
2019-Mar-24 08:31N 59°54' E 010°45'510.3
2019-Mar-24 08:00N 59°51' E 010°37'714.5
2019-Mar-24 07:31N 59°44' E 010°35'714.7
2019-Mar-24 07:00N 59°36' E 010°38'917.5
2019-Mar-24 06:30N 59°28' E 010°34'917.1
2019-Mar-24 06:00N 59°19' E 010°36'917.2
2019-Mar-24 05:30N 59°11' E 010°40'816.9
2019-Mar-24 05:00N 59°03' E 010°41'816.6
2019-Mar-24 04:30N 58°54' E 010°42'816.8
2019-Mar-24 04:00N 58°46' E 010°45'916.8
2019-Mar-24 03:30N 58°37' E 010°47'917.3
2019-Mar-24 03:00N 58°29' E 010°49'917.4
2019-Mar-24 02:30N 58°20' E 010°51'917.7
2019-Mar-24 02:00N 58°12' E 010°54'917.4
2019-Mar-24 01:30N 58°03' E 010°56'817.0
2019-Mar-24 01:00N 57°55' E 010°58'917.0
2019-Mar-24 00:30N 57°46' E 011°01'816.0
2019-Mar-24 00:00N 57°39' E 011°05'816.2
2019-Mar-23 23:30N 57°33' E 011°16'816.3
2019-Mar-23 23:00N 57°27' E 011°26'816.4
2019-Mar-23 22:30N 57°20' E 011°32'816.3
2019-Mar-23 22:00N 57°12' E 011°36'816.2
2019-Mar-23 21:30N 57°04' E 011°43'5816.1
2019-Mar-23 17:53N 56°12' E 012°28'616.1
2019-Mar-23 17:30N 56°07' E 012°34'714.7
2019-Mar-23 17:00N 56°00' E 012°41'815.4
2019-Mar-23 16:30N 55°53' E 012°44'714.9
2019-Mar-23 16:00N 55°46' E 012°42'5 9.9
2019-Mar-23 15:30N 55°42' E 012°36'0 0.0
2019-Mar-23 15:00N 55°42' E 012°36'0 0.0
2019-Mar-23 14:30N 55°42' E 012°36'0 0.0
2019-Mar-23 14:00N 55°42' E 012°36'0 0.0
2019-Mar-23 13:30N 55°42' E 012°36'0 0.0
2019-Mar-23 12:54N 55°42' E 012°36'0 0.0
2019-Mar-23 12:27N 55°42' E 012°36'0 0.0
2019-Mar-23 12:00N 55°42' E 012°36'0 0.0
2019-Mar-23 11:27N 55°42' E 012°36'0 0.0
2019-Mar-23 11:00N 55°42' E 012°36'0 0.0
2019-Mar-23 10:27N 55°42' E 012°36'0 0.0
2019-Mar-23 10:00N 55°42' E 012°36'0 0.0
2019-Mar-23 09:27N 55°42' E 012°36'0 0.0
2019-Mar-23 09:00N 55°42' E 012°36'0 0.5
2019-Mar-23 08:30N 55°42' E 012°36'713.1
2019-Mar-23 08:01N 55°48' E 012°42'714.4
2019-Mar-23 07:30N 55°55' E 012°39'714.1
2019-Mar-23 07:01N 56°02' E 012°40'714.8
2019-Mar-23 06:31N 56°07' E 012°30'1016.7
2019-Mar-23 05:55N 56°15' E 012°18'5017.5
2019-Mar-23 03:03N 57°01' E 011°43'117.1
2019-Mar-23 03:01N 57°02' E 011°42'917.0
2019-Mar-23 02:30N 57°10' E 011°37'917.1
2019-Mar-23 02:01N 57°18' E 011°32'917.3
2019-Mar-23 01:30N 57°26' E 011°26'816.7
2019-Mar-23 01:01N 57°33' E 011°18'816.9
2019-Mar-23 00:31N 57°41' E 011°12'917.0
2019-Mar-23 00:00N 57°49' E 011°06'816.8
2019-Mar-22 23:31N 57°56' E 011°01'816.9
2019-Mar-22 23:01N 58°04' E 010°55'816.9
2019-Mar-22 22:31N 58°12' E 010°49'916.9
2019-Mar-22 22:00N 58°20' E 010°44'816.6
2019-Mar-22 21:30N 58°28' E 010°38'816.1
2019-Mar-22 21:00N 58°36' E 010°36'714.8
2019-Mar-22 20:29N 58°44' E 010°35'815.7
2019-Mar-22 20:00N 58°51' E 010°34'816.3
2019-Mar-22 19:30N 58°59' E 010°36'816.3
2019-Mar-22 19:00N 59°07' E 010°38'815.8
2019-Mar-22 18:30N 59°15' E 010°37'815.5
2019-Mar-22 18:01N 59°23' E 010°34'815.4
2019-Mar-22 17:30N 59°30' E 010°35'714.9
2019-Mar-22 17:00N 59°38' E 010°37'713.0
2019-Mar-22 16:30N 59°44' E 010°33'715.1
2019-Mar-22 16:01N 59°51' E 010°36'510.1
2019-Mar-22 15:30N 59°54' E 010°45'0 0.1
2019-Mar-22 14:58N 59°54' E 010°45'0 0.0
2019-Mar-22 14:28N 59°54' E 010°45'0 0.0
2019-Mar-22 13:58N 59°54' E 010°45'0 0.0
2019-Mar-22 13:28N 59°54' E 010°45'0 0.0
2019-Mar-22 12:58N 59°54' E 010°45'0 0.0
2019-Mar-22 12:28N 59°54' E 010°45'0 0.0
2019-Mar-22 11:58N 59°54' E 010°45'0 0.0
2019-Mar-22 11:28N 59°54' E 010°45'0 0.0
2019-Mar-22 10:58N 59°54' E 010°45'0 0.0
2019-Mar-22 10:28N 59°54' E 010°45'0 0.0
2019-Mar-22 09:58N 59°54' E 010°45'0 0.0
2019-Mar-22 09:28N 59°54' E 010°45'0 0.0
2019-Mar-22 08:58N 59°54' E 010°45'0 0.5
2019-Mar-22 08:30N 59°54' E 010°45'713.1
2019-Mar-22 08:01N 59°49' E 010°35'714.8
2019-Mar-22 07:30N 59°42' E 010°36'714.3
2019-Mar-22 07:00N 59°35' E 010°38'816.0
2019-Mar-22 06:30N 59°27' E 010°34'815.7
2019-Mar-22 06:00N 59°19' E 010°36'815.9
2019-Mar-22 05:30N 59°12' E 010°39'815.7
2019-Mar-22 05:00N 59°04' E 010°40'815.8
2019-Mar-22 04:30N 58°56' E 010°42'816.2
2019-Mar-22 04:00N 58°48' E 010°44'816.4
2019-Mar-22 03:30N 58°40' E 010°47'816.7
2019-Mar-22 03:00N 58°32' E 010°52'917.2
2019-Mar-22 02:30N 58°24' E 010°58'917.0
2019-Mar-22 02:00N 58°16' E 011°03'917.5
2019-Mar-22 01:30N 58°08' E 011°09'917.3
2019-Mar-22 01:00N 57°60' E 011°14'917.0
2019-Mar-22 00:30N 57°52' E 011°20'816.5
2019-Mar-22 00:00N 57°44' E 011°25'816.6
2019-Mar-21 23:30N 57°36' E 011°31'815.7
2019-Mar-21 23:00N 57°29' E 011°37'815.6
2019-Mar-21 22:30N 57°22' E 011°43'815.8
2019-Mar-21 22:00N 57°15' E 011°51'815.4
2019-Mar-21 21:30N 57°08' E 011°57'815.2
2019-Mar-21 21:00N 57°01' E 012°02'714.8
2019-Mar-21 20:30N 56°54' E 012°07'1015.1
2019-Mar-21 19:52N 56°45' E 012°13'815.4
2019-Mar-21 19:21N 56°37' E 012°16'2816.0
2019-Mar-21 17:37N 56°10' E 012°28'316.9
2019-Mar-21 17:26N 56°08' E 012°32'716.7
2019-Mar-21 17:01N 56°03' E 012°40'816.4
2019-Mar-21 16:30N 55°55' E 012°45'816.2
2019-Mar-21 16:00N 55°47' E 012°42'611.8
2019-Mar-21 15:30N 55°42' E 012°36'0 0.0
2019-Mar-21 14:57N 55°42' E 012°36'0 0.0
2019-Mar-21 14:30N 55°42' E 012°36'0 0.0
2019-Mar-21 13:57N 55°42' E 012°36'0 0.0
2019-Mar-21 13:24N 55°42' E 012°36'0 0.0
2019-Mar-21 12:57N 55°42' E 012°36'0 0.0
2019-Mar-21 12:27N 55°42' E 012°36'0 0.0
2019-Mar-21 12:00N 55°42' E 012°36'0 0.0
2019-Mar-21 11:27N 55°42' E 012°36'0 0.0
2019-Mar-21 10:54N 55°42' E 012°36'0 0.0
2019-Mar-21 10:30N 55°42' E 012°36'0 0.0
2019-Mar-21 10:00N 55°42' E 012°36'0 0.0
2019-Mar-21 09:27N 55°42' E 012°36'0 0.0
2019-Mar-21 08:51N 55°42' E 012°36'0 0.0
2019-Mar-21 08:30N 55°42' E 012°36'2 3.6
2019-Mar-21 08:01N 55°43' E 012°38'612.0
2019-Mar-21 07:31N 55°49' E 012°42'714.6
2019-Mar-21 07:01N 55°56' E 012°39'815.0
2019-Mar-21 06:31N 56°03' E 012°38'815.5
2019-Mar-21 06:00N 56°09' E 012°28'6317.2
2019-Mar-21 02:21N 57°09' E 011°55'617.5
2019-Mar-21 02:00N 57°15' E 011°50'917.8
2019-Mar-21 01:31N 57°22' E 011°43'917.1
2019-Mar-21 01:01N 57°30' E 011°36'816.4
2019-Mar-21 00:31N 57°38' E 011°30'816.3
2019-Mar-21 00:01N 57°45' E 011°25'816.3
2019-Mar-20 23:31N 57°53' E 011°19'816.6
2019-Mar-20 23:00N 58°01' E 011°13'816.6
2019-Mar-20 22:30N 58°08' E 011°08'816.1
2019-Mar-20 22:01N 58°16' E 011°03'816.5
2019-Mar-20 21:30N 58°24' E 010°57'816.6
2019-Mar-20 21:00N 58°31' E 010°51'816.5
2019-Mar-20 20:30N 58°39' E 010°47'816.8
2019-Mar-20 20:00N 58°48' E 010°44'917.2
2019-Mar-20 19:31N 58°56' E 010°41'917.2
2019-Mar-20 19:01N 59°05' E 010°40'816.9
2019-Mar-20 18:31N 59°13' E 010°38'816.9
2019-Mar-20 18:01N 59°21' E 010°34'816.6
2019-Mar-20 17:31N 59°30' E 010°34'816.2
2019-Mar-20 17:01N 59°38' E 010°37'713.2
2019-Mar-20 16:30N 59°44' E 010°33'815.8
2019-Mar-20 16:01N 59°52' E 010°37'5 9.1
2019-Mar-20 15:30N 59°54' E 010°45'0 0.1
2019-Mar-20 15:00N 59°54' E 010°45'0 0.0
2019-Mar-20 14:30N 59°54' E 010°45'0 0.0
2019-Mar-20 14:00N 59°54' E 010°45'0 0.0
2019-Mar-20 13:30N 59°54' E 010°45'0 0.0
2019-Mar-20 13:00N 59°54' E 010°45'0 0.0
2019-Mar-20 12:30N 59°54' E 010°45'0 0.0
2019-Mar-20 12:00N 59°54' E 010°45'0 0.0
2019-Mar-20 11:30N 59°54' E 010°45'0 0.0
2019-Mar-20 11:00N 59°54' E 010°45'0 0.0
2019-Mar-20 10:30N 59°54' E 010°45'0 0.0
2019-Mar-20 10:00N 59°54' E 010°45'0 0.0
2019-Mar-20 09:30N 59°54' E 010°45'0 0.0
2019-Mar-20 09:00N 59°54' E 010°45'0 0.4
2019-Mar-20 08:30N 59°54' E 010°45'613.2
2019-Mar-20 08:00N 59°50' E 010°35'714.4
2019-Mar-20 07:30N 59°42' E 010°36'612.5
2019-Mar-20 07:00N 59°36' E 010°38'816.1
2019-Mar-20 06:30N 59°28' E 010°34'815.8
2019-Mar-20 06:00N 59°21' E 010°36'816.0
2019-Mar-20 05:30N 59°13' E 010°38'815.8
2019-Mar-20 05:00N 59°05' E 010°40'815.5
2019-Mar-20 04:30N 58°57' E 010°42'815.9
2019-Mar-20 04:00N 58°49' E 010°43'816.1
2019-Mar-20 03:30N 58°41' E 010°46'816.0
2019-Mar-20 03:00N 58°34' E 010°51'816.4
2019-Mar-20 02:30N 58°26' E 010°57'816.6
2019-Mar-20 02:00N 58°18' E 011°02'816.5
2019-Mar-20 01:30N 58°11' E 011°07'816.4
2019-Mar-20 01:00N 58°03' E 011°13'815.9
2019-Mar-20 00:30N 57°55' E 011°18'816.1
2019-Mar-20 00:00N 57°48' E 011°23'816.5
2019-Mar-19 23:30N 57°40' E 011°28'816.6
2019-Mar-19 23:00N 57°32' E 011°34'816.2
2019-Mar-19 22:30N 57°25' E 011°40'816.0
2019-Mar-19 22:00N 57°18' E 011°47'815.8
2019-Mar-19 21:30N 57°11' E 011°54'816.1
2019-Mar-19 21:00N 57°04' E 011°60'916.4
2019-Mar-19 20:27N 56°55' E 012°06'1216.2
2019-Mar-19 19:43N 56°44' E 012°13'316.4
2019-Mar-19 19:30N 56°41' E 012°15'3316.1
2019-Mar-19 17:28N 56°09' E 012°30'817.4
2019-Mar-19 17:00N 56°03' E 012°40'816.4
2019-Mar-19 16:30N 55°55' E 012°44'815.6
2019-Mar-19 16:00N 55°47' E 012°43'612.6
2019-Mar-19 15:30N 55°42' E 012°36'0 0.2
2019-Mar-19 14:56N 55°42' E 012°36'0 0.0
2019-Mar-19 14:29N 55°42' E 012°36'0 0.0
2019-Mar-19 13:56N 55°42' E 012°36'0 0.0
2019-Mar-19 13:29N 55°42' E 012°36'0 0.0
2019-Mar-19 12:56N 55°42' E 012°36'0 0.0
2019-Mar-19 12:26N 55°42' E 012°36'0 0.0
2019-Mar-19 11:59N 55°42' E 012°36'0 0.0
2019-Mar-19 11:29N 55°42' E 012°36'0 0.0
2019-Mar-19 10:59N 55°42' E 012°36'0 0.0
2019-Mar-19 10:29N 55°42' E 012°36'0 0.0
2019-Mar-19 09:59N 55°42' E 012°36'0 0.0
2019-Mar-19 09:29N 55°42' E 012°36'0 0.0
2019-Mar-19 08:59N 55°42' E 012°36'0 0.8
2019-Mar-19 08:30N 55°42' E 012°36'613.1
2019-Mar-19 08:01N 55°48' E 012°42'816.0
2019-Mar-19 07:31N 55°56' E 012°39'815.6
2019-Mar-19 07:01N 56°04' E 012°38'815.7
2019-Mar-19 06:30N 56°10' E 012°29'6716.5
2019-Mar-19 02:27N 57°14' E 011°52'817.2
2019-Mar-19 02:01N 57°20' E 011°45'917.1
2019-Mar-19 01:31N 57°27' E 011°36'816.9
2019-Mar-19 01:00N 57°35' E 011°29'816.9
2019-Mar-19 00:31N 57°42' E 011°22'917.5
2019-Mar-19 00:00N 57°50' E 011°15'816.8
2019-Mar-18 23:31N 57°58' E 011°11'816.2
2019-Mar-18 23:01N 58°06' E 011°07'815.7
2019-Mar-18 22:31N 58°13' E 011°01'815.4
2019-Mar-18 22:00N 58°20' E 010°55'815.3
2019-Mar-18 21:30N 58°27' E 010°48'815.5
2019-Mar-18 21:00N 58°34' E 010°42'815.8
2019-Mar-18 20:30N 58°41' E 010°35'816.0
2019-Mar-18 20:00N 58°49' E 010°35'816.2
2019-Mar-18 19:31N 58°57' E 010°36'816.2
2019-Mar-18 19:01N 59°06' E 010°38'917.1
2019-Mar-18 18:31N 59°14' E 010°37'714.1
2019-Mar-18 18:00N 59°21' E 010°35'714.6
2019-Mar-18 17:30N 59°28' E 010°34'816.2
2019-Mar-18 17:00N 59°36' E 010°38'714.3
2019-Mar-18 16:30N 59°43' E 010°34'815.5
2019-Mar-18 16:00N 59°51' E 010°35'611.1
2019-Mar-18 15:30N 59°54' E 010°45'0 0.0
2019-Mar-18 14:58N 59°54' E 010°45'0 0.0
2019-Mar-18 14:28N 59°54' E 010°45'0 0.0
2019-Mar-18 13:58N 59°54' E 010°45'0 0.0
2019-Mar-18 13:28N 59°54' E 010°45'0 0.0
2019-Mar-18 12:58N 59°54' E 010°45'0 0.0
2019-Mar-18 12:28N 59°54' E 010°45'0 0.0
2019-Mar-18 11:58N 59°54' E 010°45'0 0.0
2019-Mar-18 11:28N 59°54' E 010°45'0 0.0
2019-Mar-18 10:58N 59°54' E 010°45'0 0.0
2019-Mar-18 10:28N 59°54' E 010°45'0 0.0
2019-Mar-18 09:58N 59°54' E 010°45'0 0.0
2019-Mar-18 09:28N 59°54' E 010°45'0 0.0
2019-Mar-18 08:58N 59°54' E 010°45'0 0.5
2019-Mar-18 08:30N 59°54' E 010°44'714.4
2019-Mar-18 08:00N 59°49' E 010°35'815.3
2019-Mar-18 07:31N 59°41' E 010°36'714.9
2019-Mar-18 07:01N 59°34' E 010°38'816.1
2019-Mar-18 06:31N 59°26' E 010°34'816.5
2019-Mar-18 06:01N 59°18' E 010°37'816.3
2019-Mar-18 05:31N 59°10' E 010°40'816.4
2019-Mar-18 05:01N 59°02' E 010°42'816.2
2019-Mar-18 04:31N 58°54' E 010°43'816.6
2019-Mar-18 04:01N 58°45' E 010°44'816.3
2019-Mar-18 03:30N 58°37' E 010°48'816.8
2019-Mar-18 03:00N 58°29' E 010°51'917.1
2019-Mar-18 02:30N 58°21' E 010°54'917.3
2019-Mar-18 02:01N 58°12' E 010°57'917.4
2019-Mar-18 01:31N 58°03' E 010°58'917.8
2019-Mar-18 01:01N 57°55' E 010°58'815.7
2019-Mar-18 00:31N 57°47' E 010°59'815.6
2019-Mar-18 00:01N 57°39' E 011°04'815.7
2019-Mar-17 23:31N 57°34' E 011°15'815.9
2019-Mar-17 23:01N 57°28' E 011°25'816.2
2019-Mar-17 22:30N 57°21' E 011°31'816.4
2019-Mar-17 22:01N 57°13' E 011°36'815.9
2019-Mar-17 21:30N 57°06' E 011°41'5815.8
2019-Mar-17 17:49N 56°12' E 012°23'516.7
2019-Mar-17 17:31N 56°09' E 012°30'816.8
2019-Mar-17 17:01N 56°02' E 012°40'816.5
2019-Mar-17 16:31N 55°54' E 012°44'816.0
2019-Mar-17 16:01N 55°47' E 012°42'611.4
2019-Mar-17 15:30N 55°42' E 012°36'0 0.0
2019-Mar-17 14:56N 55°42' E 012°36'0 0.0
2019-Mar-17 14:23N 55°42' E 012°36'0 0.0
2019-Mar-17 13:53N 55°42' E 012°36'0 0.0
2019-Mar-17 13:26N 55°42' E 012°36'0 0.0
2019-Mar-17 12:56N 55°42' E 012°36'0 0.0
2019-Mar-17 12:17N 55°42' E 012°36'0 0.0
2019-Mar-17 11:56N 55°42' E 012°36'0 0.0
2019-Mar-17 11:29N 55°42' E 012°36'0 0.0
2019-Mar-17 10:56N 55°42' E 012°36'0 0.0
2019-Mar-17 10:29N 55°42' E 012°36'0 0.0
2019-Mar-17 09:59N 55°42' E 012°36'0 0.0
2019-Mar-17 09:29N 55°42' E 012°36'0 0.5
2019-Mar-17 09:00N 55°42' E 012°36'612.8
2019-Mar-17 08:30N 55°48' E 012°42'816.2
2019-Mar-17 08:00N 55°56' E 012°39'816.1
2019-Mar-17 07:30N 56°04' E 012°38'815.9
2019-Mar-17 07:00N 56°09' E 012°27'917.7
2019-Mar-17 06:30N 56°16' E 012°17'5116.7
2019-Mar-17 03:28N 57°02' E 011°40'817.2
2019-Mar-17 03:00N 57°10' E 011°34'816.7
2019-Mar-17 02:30N 57°18' E 011°32'816.4
2019-Mar-17 02:00N 57°26' E 011°31'816.5
2019-Mar-17 01:30N 57°34' E 011°29'816.8
2019-Mar-17 01:00N 57°42' E 011°26'816.1
2019-Mar-17 00:30N 57°50' E 011°21'714.4
2019-Mar-17 00:00N 57°57' E 011°17'714.3
2019-Mar-16 23:30N 58°03' E 011°12'714.7
2019-Mar-16 23:00N 58°10' E 011°07'714.8
2019-Mar-16 22:30N 58°17' E 011°02'713.8
2019-Mar-16 22:00N 58°24' E 010°58'714.5
2019-Mar-16 21:30N 58°31' E 010°53'714.8
2019-Mar-16 21:00N 58°38' E 010°48'714.7
2019-Mar-16 20:30N 58°44' E 010°43'714.4
2019-Mar-16 20:00N 58°51' E 010°40'713.6
2019-Mar-16 19:30N 58°58' E 010°36'714.2
2019-Mar-16 19:00N 59°05' E 010°38'815.9
2019-Mar-16 18:30N 59°13' E 010°38'917.4
2019-Mar-16 18:00N 59°22' E 010°35'917.1
2019-Mar-16 17:30N 59°30' E 010°35'816.4
2019-Mar-16 17:00N 59°38' E 010°37'713.1
2019-Mar-16 16:31N 59°44' E 010°33'816.3
2019-Mar-16 16:00N 59°52' E 010°38'4 7.9
2019-Mar-16 15:31N 59°54' E 010°45'0 0.0
2019-Mar-16 15:00N 59°54' E 010°45'0 0.0
2019-Mar-16 14:30N 59°54' E 010°45'0 0.0
2019-Mar-16 14:00N 59°54' E 010°45'0 0.0
2019-Mar-16 13:30N 59°54' E 010°45'0 0.0
2019-Mar-16 13:00N 59°54' E 010°45'0 0.0
2019-Mar-16 12:30N 59°54' E 010°45'0 0.0
2019-Mar-16 12:00N 59°54' E 010°45'0 0.0
2019-Mar-16 11:30N 59°54' E 010°45'0 0.0
2019-Mar-16 11:00N 59°54' E 010°45'0 0.0
2019-Mar-16 10:30N 59°54' E 010°45'0 0.0
2019-Mar-16 10:00N 59°54' E 010°45'0 0.0
2019-Mar-16 09:30N 59°54' E 010°45'0 0.0
2019-Mar-16 09:00N 59°54' E 010°45'0 0.2
2019-Mar-16 08:30N 59°54' E 010°45'611.8
2019-Mar-16 08:00N 59°50' E 010°36'815.3
2019-Mar-16 07:31N 59°43' E 010°36'714.4
2019-Mar-16 07:01N 59°35' E 010°38'816.2
2019-Mar-16 06:31N 59°28' E 010°34'815.9
2019-Mar-16 06:01N 59°20' E 010°36'815.6
2019-Mar-16 05:31N 59°12' E 010°39'815.3
2019-Mar-16 05:01N 59°04' E 010°41'815.5
2019-Mar-16 04:30N 58°57' E 010°42'815.6
2019-Mar-16 04:00N 58°49' E 010°44'816.2
2019-Mar-16 03:30N 58°41' E 010°46'816.7
2019-Mar-16 03:01N 58°33' E 010°50'917.4
2019-Mar-16 02:30N 58°25' E 010°55'917.2
2019-Mar-16 02:01N 58°16' E 011°00'816.7
2019-Mar-16 01:31N 58°08' E 011°05'816.9
2019-Mar-16 01:01N 58°00' E 011°10'816.0
2019-Mar-16 00:31N 57°53' E 011°14'815.1
2019-Mar-16 00:01N 57°46' E 011°19'  

Dump ship's entire track history